NCAR-RAP Real-Time Weather Data

Output produced by METARs form (23 February 2020  02:35 UTC)
found at http://weather.rap.ucar.edu/surface/
 
KCYS 230153Z 22011KT 10SM CLR 06/M07 A3000 RMK AO2 SLP144 T00561072
KCYS 230053Z 21009KT 10SM CLR 08/M08 A3000 RMK AO2 SLP143 T00781083
KCYS 222353Z 21015KT 10SM CLR 10/M08 A2998 RMK AO2 PK WND 25027/2255 SLP127 T01001083 10122 20100 56006
KCYS 222253Z 26019G24KT 10SM CLR 11/M09 A2998 RMK AO2 PK WND 27033/2203 SLP121 T01111094
KCYS 222153Z 26024G30KT 10SM CLR 12/M09 A2999 RMK AO2 PK WND 26036/2124 SLP117 T01221089
KCYS 222053Z 26027G34KT 10SM CLR 12/M09 A3000 RMK AO2 PK WND 26034/2052 SLP125 T01221089 58008
KCYS 221953Z 26018G28KT 10SM CLR 12/M09 A3001 RMK AO2 PK WND 25028/1949 SLP126 T01171089
KCYS 221853Z 27020G30KT 10SM CLR 12/M09 A3004 RMK AO2 PK WND 28037/1822 SLP157 T01171089
KCYS 221753Z 30027G37KT 10SM CLR 10/M09 A3003 RMK AO2 PK WND 28039/1720 SLP158 T01001094 10100 20028 50001
KCYS 221653Z 28027G35KT 10SM CLR 08/M11 A3003 RMK AO2 PK WND 28039/1554 SLP167 T00831106
KCYS 221553Z 27027G38KT 10SM CLR 07/M11 A3006 RMK AO2 PK WND 27038/1553 SLP172 T00721106
KCYS 221453Z 28025G33KT 10SM CLR 05/M10 A3003 RMK AO2 PK WND 28037/1356 SLP168 T00501100 55008
KCYS 221353Z 28028G38KT 10SM CLR 04/M09 A3003 RMK AO2 PK WND 28038/1349 SLP164 T00391094
KCYS 221253Z 27020G29KT 10SM CLR 03/M08 A3005 RMK AO2 PK WND 28031/1216 SLP177 T00281083
KCYS 221153Z AUTO 27020G28KT 10SM CLR 03/M08 A3006 RMK AO2 PK WND 28030/1111 SLP161 T00331083 10061 21039 55001
KCYS 221053Z AUTO 29021G29KT 10SM CLR 04/M08 A3005 RMK AO2 PK WND 29029/1048 SLP147 T00441083
KCYS 220953Z AUTO 28018G30KT 10SM CLR 05/M08 A3004 RMK AO2 PK WND 27032/0930 SLP141 T00501083
KCYS 220853Z AUTO 24013KT 10SM CLR 04/M08 A3006 RMK AO2 SLP146 T00441078 56017
KCYS 220753Z AUTO 25007KT 10SM CLR 06/M08 A3008 RMK AO2 SLP151 T00611083
KCYS 220653Z AUTO 30003KT 10SM CLR M02/M13 A3009 RMK AO2 SLP181 T10171128 401221100
KCYS 220553Z AUTO 29005KT 10SM CLR M01/M13 A3012 RMK AO2 SLP190 T10111133 10078 21033 58009
KCYS 220453Z AUTO 28008KT 10SM CLR M02/M13 A3013 RMK AO2 SLP202 T10171128
KCYS 220353Z 29007KT 10SM CLR 01/M14 A3015 RMK AO2 SLP211 T00061139
KCYS 220253Z 28007KT 10SM CLR 00/M13 A3015 RMK AO2 SLP227 T00001128 50001
KCYS 220153Z 24004KT 10SM CLR 02/M15 A3016 RMK AO2 SLP229 T00221150
KCYS 220053Z 23007KT 10SM CLR 03/M16 A3015 RMK AO2 SLP228 T00281156
KCYS 212353Z 20013KT 10SM CLR 08/M17 A3015 RMK AO2 SLP204 T00781172 10122 20078 56005
KCYS 212253Z 19011G16KT 10SM CLR 11/M20 A3015 RMK AO2 SLP219 T01111200
KCYS 212153Z VRB03KT 10SM CLR 12/M22 A3015 RMK AO2 SLP213 T01171217
KCYS 212053Z 22007KT 10SM CLR 12/M20 A3016 RMK AO2 SLP221 T01171200 58025
KCYS 211953Z 26013KT 10SM CLR 11/M19 A3020 RMK AO2 SLP237 T01111189
KCYS 211853Z 27014KT 10SM CLR 11/M21 A3023 RMK AO2 SLP246 T01061206
KCYS 211753Z 27014KT 10SM CLR 09/M23 A3025 RMK AO2 SLP256 T00941228 10094 21028 50001
KCYS 211653Z 28018G26KT 10SM CLR 08/M21 A3026 RMK AO2 PK WND 28027/1636 SLP258 T00781211
KCYS 211553Z 28017G24KT 10SM CLR 04/M21 A3026 RMK AO2 SLP270 T00441206
KCYS 211453Z 28019KT 10SM CLR 01/M22 A3025 RMK AO2 PK WND 27028/1415 SLP280 T00111217 55000
KCYS 211353Z 28019KT 10SM CLR M02/M21 A3023 RMK AO2 PK WND 27028/1325 SLP279 T10171206
KCYS 211253Z 26013KT 10SM CLR M02/M21 A3023 RMK AO2 SLP272 T10171206
KCYS 211153Z AUTO 26012G18KT 10SM CLR M01/M21 A3025 RMK AO2 SLP266 T10061206 11006 21100 56011
KCYS 211053Z AUTO 36003KT 10SM CLR M08/M18 A3025 RMK AO2 SLP284 T10781178
KCYS 210953Z AUTO 25008KT 10SM CLR M07/M18 A3027 RMK AO2 SLP287 T10671178
KCYS 210853Z AUTO 27007KT 10SM CLR M08/M17 A3029 RMK AO2 SLP297 T10781172 58014
KCYS 210753Z AUTO 00000KT 10SM CLR M08/M17 A3030 RMK AO2 SLP307 T10781172
KCYS 210653Z AUTO 24006KT 10SM CLR M08/M17 A3032 RMK AO2 SLP321 T10781167 400221194
KCYS 210553Z AUTO 28008KT 10SM CLR M07/M17 A3034 RMK AO2 SLP329 T10671167 11006 21078 58009
KCYS 210453Z AUTO 26009KT 10SM CLR M05/M17 A3035 RMK AO2 SLP338 T10501167
KCYS 210353Z 24010KT 10SM CLR M05/M14 A3036 RMK AO2 SLP348 T10501139
KCYS 210253Z 22010KT 10SM CLR M06/M13 A3037 RMK AO2 SLP370 T10561128 53003